createdAt,value
2023-12-20T00:00:03.997Z,97875.27
2023-12-20T00:02:31.865Z,97862.33
2023-12-20T00:04:59.626Z,97851.40
2023-12-20T00:07:27.546Z,97850.52
2023-12-20T00:09:55.283Z,97845.09
2023-12-20T00:12:23.225Z,97836.75
2023-12-20T00:14:50.845Z,97832.87
2023-12-20T00:17:18.764Z,97839.42
2023-12-20T00:19:46.467Z,97838.26
2023-12-20T00:22:14.218Z,97840.56
2023-12-20T00:24:41.852Z,97845.44
2023-12-20T00:27:09.455Z,97843.33
2023-12-20T00:29:37.071Z,97846.09
2023-12-20T00:32:05.662Z,97855.41
2023-12-20T00:34:33.291Z,97865.94
2023-12-20T00:37:00.887Z,97866.11
2023-12-20T00:39:28.493Z,97870.13
2023-12-20T00:41:56.185Z,97857.66
2023-12-20T00:44:23.761Z,97853.39
2023-12-20T00:46:52.025Z,97837.26
2023-12-20T00:49:19.735Z,97836.86
2023-12-20T00:51:49.064Z,97825.56
2023-12-20T00:54:16.873Z,97823.60
2023-12-20T00:56:44.805Z,97820.75
2023-12-20T00:59:12.384Z,97812.36
2023-12-20T01:01:40.148Z,97808.20
2023-12-20T01:04:08.059Z,97802.86
2023-12-20T01:06:35.721Z,97804.45
2023-12-20T01:09:04.004Z,97788.50
2023-12-20T01:11:31.627Z,97780.31
2023-12-20T01:13:59.239Z,97788.12
2023-12-20T01:16:26.847Z,97786.52
2023-12-20T01:18:54.537Z,97804.46
2023-12-20T01:21:22.252Z,97812.36
2023-12-20T01:23:49.877Z,97806.94
2023-12-20T01:26:17.919Z,97793.27
2023-12-20T01:28:45.488Z,97774.09
2023-12-20T01:31:13.424Z,97781.56
2023-12-20T01:33:41.146Z,97779.27
2023-12-20T01:36:09.087Z,97781.98
2023-12-20T01:38:36.868Z,97786.76
2023-12-20T01:41:04.743Z,97791.86
2023-12-20T01:43:37.889Z,97787.23
2023-12-20T01:46:08.874Z,97802.90
2023-12-20T01:48:36.766Z,97815.54
2023-12-20T01:51:04.846Z,97813.02
2023-12-20T01:53:33.797Z,97802.16
2023-12-20T01:56:01.608Z,97788.46
2023-12-20T01:58:29.274Z,97765.59
2023-12-20T02:00:57.015Z,97775.30
2023-12-20T02:03:24.720Z,97769.10
2023-12-20T02:05:52.358Z,97765.86
2023-12-20T02:08:19.984Z,97758.15
2023-12-20T02:10:47.539Z,97766.70
2023-12-20T02:13:15.225Z,97758.67
2023-12-20T02:15:44.858Z,97746.42
2023-12-20T02:18:16.471Z,97749.95
2023-12-20T02:20:44.380Z,97746.86
2023-12-20T02:23:12.096Z,97751.71
2023-12-20T02:25:39.813Z,97761.55
2023-12-20T02:28:08.019Z,97762.85
2023-12-20T02:30:36.014Z,97757.45
2023-12-20T02:33:04.501Z,97747.01
2023-12-20T02:35:32.090Z,97744.39
2023-12-20T02:37:59.687Z,97743.14
2023-12-20T02:40:27.297Z,97737.88
2023-12-20T02:42:55.028Z,97742.52
2023-12-20T02:45:22.740Z,97740.38
2023-12-20T02:47:50.452Z,97740.11
2023-12-20T02:50:18.116Z,97737.32
2023-12-20T02:52:46.198Z,97729.17
2023-12-20T02:55:13.993Z,97735.36
2023-12-20T02:57:43.598Z,97734.79
2023-12-20T03:00:11.985Z,97738.52
2023-12-20T03:02:39.626Z,97733.92
2023-12-20T03:05:07.707Z,97731.25
2023-12-20T03:07:35.412Z,97728.94
2023-12-20T03:10:15.336Z,97725.29
2023-12-20T03:12:48.020Z,97721.50
2023-12-20T03:15:15.901Z,97716.13
2023-12-20T03:17:43.873Z,97715.58
2023-12-20T03:20:11.971Z,97714.66
2023-12-20T03:22:39.624Z,97715.98
2023-12-20T03:25:07.755Z,97718.52
2023-12-20T03:27:37.814Z,97723.20
2023-12-20T03:30:06.487Z,97711.26
2023-12-20T03:32:34.532Z,97708.13
2023-12-20T03:35:02.595Z,97705.48
2023-12-20T03:37:30.560Z,97702.65
2023-12-20T03:39:58.322Z,97704.10
2023-12-20T03:42:26.526Z,97700.05
2023-12-20T03:44:54.259Z,97700.91
2023-12-20T03:47:21.832Z,97697.11
2023-12-20T03:49:49.666Z,97703.88
2023-12-20T03:52:17.475Z,97703.83
2023-12-20T03:54:45.178Z,97707.56
2023-12-20T03:57:12.870Z,97708.71
2023-12-20T03:59:40.739Z,97715.46
2023-12-20T04:02:08.346Z,97709.08
2023-12-20T04:04:36.210Z,97714.62
2023-12-20T04:07:04.344Z,97711.67
2023-12-20T04:09:32.042Z,97713.17
2023-12-20T04:11:59.727Z,97704.45
2023-12-20T04:14:27.370Z,97710.81
2023-12-20T04:16:55.065Z,97712.40
2023-12-20T04:19:23.088Z,97710.85
2023-12-20T04:21:50.945Z,97715.02
2023-12-20T04:24:18.729Z,97710.69
2023-12-20T04:26:46.344Z,97705.42
2023-12-20T04:29:13.936Z,97709.72
2023-12-20T04:31:41.587Z,97713.85
2023-12-20T04:34:09.279Z,97720.29
2023-12-20T04:36:36.970Z,97717.06
2023-12-20T04:39:04.648Z,97715.85
2023-12-20T04:41:32.216Z,97706.79
2023-12-20T04:43:59.919Z,97709.17
2023-12-20T04:46:27.789Z,97706.34
2023-12-20T04:48:55.459Z,97705.49
2023-12-20T04:51:23.128Z,97704.69
2023-12-20T04:53:50.760Z,97705.23
2023-12-20T04:56:18.338Z,97705.21
2023-12-20T04:58:46.014Z,97706.08
2023-12-20T05:01:14.094Z,97699.95
2023-12-20T05:03:41.788Z,97704.25
2023-12-20T05:06:10.777Z,97706.00
2023-12-20T05:08:38.382Z,97703.98
2023-12-20T05:11:05.989Z,97703.28
2023-12-20T05:13:38.385Z,97702.36
2023-12-20T05:16:15.328Z,97697.50
2023-12-20T05:18:43.251Z,97693.86
2023-12-20T05:21:12.124Z,97696.48
2023-12-20T05:23:39.931Z,97695.33
2023-12-20T05:26:07.722Z,97699.31
2023-12-20T05:28:35.368Z,97695.77
2023-12-20T05:31:03.643Z,97691.74
2023-12-20T05:33:31.485Z,97691.35
2023-12-20T05:35:59.227Z,97688.61
2023-12-20T05:38:27.119Z,97693.16
2023-12-20T05:40:54.897Z,97689.52
2023-12-20T05:43:22.714Z,97688.95
2023-12-20T05:45:50.636Z,97690.48
2023-12-20T05:48:18.636Z,97690.71
2023-12-20T05:50:46.333Z,97688.86
2023-12-20T05:53:14.154Z,97685.27
2023-12-20T05:55:41.998Z,97691.66
2023-12-20T05:58:09.658Z,97688.31
2023-12-20T06:00:37.860Z,97687.79
2023-12-20T06:03:06.109Z,97692.96
2023-12-20T06:05:33.754Z,97691.59
2023-12-20T06:08:04.055Z,97691.91
2023-12-20T06:10:31.842Z,97690.99
2023-12-20T06:13:01.830Z,97689.89
2023-12-20T06:15:29.869Z,97693.65
2023-12-20T06:17:57.840Z,97699.21
2023-12-20T06:20:26.092Z,97700.48
2023-12-20T06:22:54.111Z,97700.46
2023-12-20T06:25:21.945Z,97702.27
2023-12-20T06:27:50.027Z,97704.95
2023-12-20T06:30:18.239Z,97706.29
2023-12-20T06:32:48.042Z,97704.56
2023-12-20T06:35:15.827Z,97703.84
2023-12-20T06:37:44.462Z,97703.79
2023-12-20T06:40:17.383Z,97705.97
2023-12-20T06:42:57.334Z,97716.27
2023-12-20T06:45:29.950Z,97715.06
2023-12-20T06:47:58.003Z,97719.21
2023-12-20T06:50:25.800Z,97715.68
2023-12-20T06:52:54.056Z,97710.91
2023-12-20T06:55:21.967Z,97714.94
2023-12-20T06:57:50.070Z,97721.61
2023-12-20T07:00:18.910Z,97724.02
2023-12-20T07:02:46.713Z,97728.34
2023-12-20T07:05:17.893Z,97728.32
2023-12-20T07:07:46.022Z,97723.56
2023-12-20T07:10:14.737Z,97728.73
2023-12-20T07:12:42.386Z,97724.78
2023-12-20T07:15:10.341Z,97728.59
2023-12-20T07:17:38.029Z,97727.21
2023-12-20T07:20:07.945Z,97731.00
2023-12-20T07:22:35.822Z,97732.39
2023-12-20T07:25:04.878Z,97729.45
2023-12-20T07:27:32.486Z,97735.70
2023-12-20T07:30:00.100Z,97734.66
2023-12-20T07:32:28.407Z,97733.44
2023-12-20T07:34:56.755Z,97733.61
2023-12-20T07:37:24.923Z,97728.31
2023-12-20T07:39:52.546Z,97733.37
2023-12-20T07:42:20.197Z,97735.10
2023-12-20T07:44:47.956Z,97742.45
2023-12-20T07:47:18.362Z,97738.45
2023-12-20T07:49:46.003Z,97740.90
2023-12-20T07:52:13.986Z,97737.77
2023-12-20T07:54:42.055Z,97738.61
2023-12-20T07:57:09.787Z,97740.61
2023-12-20T07:59:37.734Z,97739.18
2023-12-20T08:02:05.767Z,97741.80
2023-12-20T08:04:34.006Z,97736.45
2023-12-20T08:07:02.013Z,97738.50
2023-12-20T08:09:30.032Z,97739.66
2023-12-20T08:11:57.697Z,97742.59
2023-12-20T08:14:25.296Z,97743.65
2023-12-20T08:16:52.999Z,97742.35
2023-12-20T08:19:20.799Z,97741.37
2023-12-20T08:21:48.499Z,97738.95
2023-12-20T08:24:16.481Z,97739.44
2023-12-20T08:26:44.062Z,97735.84
2023-12-20T08:29:14.242Z,97736.89
2023-12-20T08:31:42.041Z,97740.51
2023-12-20T08:34:10.042Z,97746.38
2023-12-20T08:36:37.908Z,97744.15
2023-12-20T08:39:08.606Z,97749.41
2023-12-20T08:41:36.446Z,97750.86
2023-12-20T08:44:04.775Z,97748.45
2023-12-20T08:46:32.372Z,97747.74
2023-12-20T08:49:01.692Z,97749.97
2023-12-20T08:51:30.189Z,97749.86
2023-12-20T08:53:58.430Z,97754.41
2023-12-20T08:56:26.074Z,97748.36
2023-12-20T08:58:53.677Z,97757.13
2023-12-20T09:01:21.747Z,97752.00
2023-12-20T09:03:49.501Z,97752.19
2023-12-20T09:06:17.299Z,97753.77
2023-12-20T09:08:45.005Z,97755.81
2023-12-20T09:11:12.621Z,97751.09
2023-12-20T09:13:41.007Z,97750.30
2023-12-20T09:16:09.404Z,97757.14
2023-12-20T09:18:37.013Z,97754.27
2023-12-20T09:21:04.603Z,97752.52
2023-12-20T09:23:32.283Z,97753.20
2023-12-20T09:26:00.009Z,97749.38
2023-12-20T09:28:27.804Z,97747.16
2023-12-20T09:30:55.699Z,97746.84
2023-12-20T09:33:23.579Z,97746.85
2023-12-20T09:35:51.424Z,97741.65
2023-12-20T09:38:19.275Z,97744.23
2023-12-20T09:40:46.867Z,97742.35
2023-12-20T09:43:18.813Z,97740.45
2023-12-20T09:45:47.782Z,97736.45
2023-12-20T09:48:18.002Z,97735.22
2023-12-20T09:50:50.795Z,97731.74
2023-12-20T09:53:20.733Z,97730.54
2023-12-20T09:55:48.473Z,97730.35
2023-12-20T09:58:16.614Z,97732.20
2023-12-20T10:00:44.474Z,97733.16
2023-12-20T10:03:12.134Z,97732.08
2023-12-20T10:05:40.102Z,97740.77
2023-12-20T10:08:08.418Z,97734.06
2023-12-20T10:10:42.453Z,97731.11
2023-12-20T10:13:15.726Z,97732.65
2023-12-20T10:15:43.802Z,97726.61
2023-12-20T10:18:13.428Z,97724.39
2023-12-20T10:20:41.883Z,97723.69
2023-12-20T10:23:09.519Z,97727.27
2023-12-20T10:25:37.156Z,97723.61
2023-12-20T10:28:15.773Z,97724.71
2023-12-20T10:30:44.166Z,97721.44
2023-12-20T10:33:12.748Z,97721.58
2023-12-20T10:35:43.379Z,97723.05
2023-12-20T10:38:12.937Z,97723.91
2023-12-20T10:40:40.672Z,97717.53
2023-12-20T10:43:08.532Z,97718.05
2023-12-20T10:45:37.002Z,97714.41
2023-12-20T10:48:05.573Z,97715.96
2023-12-20T10:50:33.700Z,97721.23
2023-12-20T10:53:02.026Z,97723.17
2023-12-20T10:55:30.095Z,97719.40
2023-12-20T10:58:10.496Z,97712.64
2023-12-20T11:00:45.779Z,97716.95
2023-12-20T11:03:14.031Z,97713.70
2023-12-20T11:06:17.348Z,97714.98
2023-12-20T11:08:57.339Z,97715.70
2023-12-20T11:11:33.429Z,97711.86
2023-12-20T11:14:03.599Z,97707.38
2023-12-20T11:16:41.713Z,97704.13
2023-12-20T11:19:16.878Z,97701.95
2023-12-20T11:21:45.151Z,97699.70
2023-12-20T11:24:12.817Z,97697.25
2023-12-20T11:26:40.479Z,97696.20
2023-12-20T11:29:34.079Z,97697.63
2023-12-20T11:32:05.540Z,97693.34
2023-12-20T11:34:34.479Z,97700.73
2023-12-20T11:37:03.617Z,97698.96
2023-12-20T11:39:31.910Z,97699.83
2023-12-20T11:42:05.493Z,97699.70
2023-12-20T11:44:33.668Z,97701.40
2023-12-20T11:47:01.409Z,97696.83
2023-12-20T11:49:31.880Z,97697.89
2023-12-20T11:52:01.585Z,97688.25
2023-12-20T11:54:31.479Z,97684.69
2023-12-20T11:56:59.077Z,97685.23
2023-12-20T11:59:27.026Z,97681.85
2023-12-20T12:01:57.678Z,97680.44
2023-12-20T12:04:25.492Z,97676.43
2023-12-20T12:06:53.354Z,97677.37
2023-12-20T12:09:21.243Z,97673.90
2023-12-20T12:11:48.869Z,97668.89
2023-12-20T12:14:16.466Z,97672.89
2023-12-20T12:16:44.672Z,97676.69
2023-12-20T12:19:25.040Z,97676.83
2023-12-20T12:22:18.268Z,97681.69
2023-12-20T12:24:46.937Z,97676.85
2023-12-20T12:27:14.710Z,97679.79
2023-12-20T12:29:42.466Z,97677.34
2023-12-20T12:32:11.047Z,97677.71
2023-12-20T12:34:39.079Z,97684.69
2023-12-20T12:37:06.795Z,97677.80
2023-12-20T12:39:35.488Z,97678.11
2023-12-20T12:42:03.636Z,97675.92
2023-12-20T12:44:31.332Z,97675.98
2023-12-20T12:46:59.131Z,97676.52
2023-12-20T12:49:29.214Z,97668.90
2023-12-20T12:51:59.397Z,97661.52
2023-12-20T12:54:27.450Z,97656.38
2023-12-20T12:56:55.263Z,97653.80
2023-12-20T12:59:22.843Z,97659.68
2023-12-20T13:01:50.518Z,97657.46
2023-12-20T13:04:18.627Z,97654.88
2023-12-20T13:06:46.500Z,97654.06
2023-12-20T13:09:14.181Z,97655.08
2023-12-20T13:11:41.793Z,97651.75
2023-12-20T13:14:11.957Z,97653.36
2023-12-20T13:16:39.593Z,97656.19
2023-12-20T13:19:07.720Z,97652.58
2023-12-20T13:21:37.625Z,97653.14
2023-12-20T13:24:05.935Z,97650.70
2023-12-20T13:26:34.056Z,97650.89
2023-12-20T13:29:01.677Z,97650.58
2023-12-20T13:31:29.752Z,97652.16
2023-12-20T13:33:57.878Z,97652.53
2023-12-20T13:36:25.601Z,97652.15
2023-12-20T13:38:54.278Z,97653.36
2023-12-20T13:41:22.334Z,97652.38
2023-12-20T13:43:49.944Z,97649.98
2023-12-20T13:46:18.399Z,97648.09
2023-12-20T13:48:46.480Z,97646.28
2023-12-20T13:51:14.214Z,97643.81
2023-12-20T13:53:41.864Z,97650.02
2023-12-20T13:56:09.703Z,97646.86
2023-12-20T13:58:38.519Z,97651.14
2023-12-20T14:01:06.414Z,97646.74
2023-12-20T14:03:34.939Z,97651.93
2023-12-20T14:06:02.716Z,97649.20
2023-12-20T14:08:30.406Z,97647.02
2023-12-20T14:10:58.276Z,97649.63
2023-12-20T14:13:26.004Z,97651.83
2023-12-20T14:15:55.354Z,97650.34
2023-12-20T14:18:23.001Z,97645.95
2023-12-20T14:20:51.741Z,97649.56
2023-12-20T14:23:19.378Z,97645.89
2023-12-20T14:25:52.103Z,97649.46
2023-12-20T14:28:20.842Z,97646.08
2023-12-20T14:30:50.572Z,97645.64
2023-12-20T14:33:21.049Z,97646.11
2023-12-20T14:35:48.942Z,97648.69
2023-12-20T14:38:16.788Z,97654.89
2023-12-20T14:40:44.545Z,97657.42
2023-12-20T14:43:12.183Z,97657.67
2023-12-20T14:45:40.170Z,97660.55
2023-12-20T14:48:08.229Z,97652.90
2023-12-20T14:50:37.812Z,97653.29
2023-12-20T14:53:05.684Z,97654.52
2023-12-20T14:55:33.534Z,97658.31
2023-12-20T14:58:02.088Z,97652.91
2023-12-20T15:00:31.064Z,97653.39
2023-12-20T15:02:58.728Z,97652.17
2023-12-20T15:05:28.191Z,97652.73
2023-12-20T15:07:55.938Z,97655.02
2023-12-20T15:10:23.678Z,97655.73
2023-12-20T15:12:51.527Z,97647.23
2023-12-20T15:15:19.921Z,97645.65
2023-12-20T15:17:47.953Z,97646.21
2023-12-20T15:20:15.916Z,97647.31
2023-12-20T15:22:46.871Z,97649.63
2023-12-20T15:25:21.287Z,97650.34
2023-12-20T15:27:54.626Z,97649.96
2023-12-20T15:30:23.131Z,97648.52
2023-12-20T15:32:51.387Z,97649.70
2023-12-20T15:35:19.306Z,97652.48
2023-12-20T15:37:47.588Z,97653.08
2023-12-20T15:40:15.753Z,97646.53
2023-12-20T15:42:43.390Z,97644.63
2023-12-20T15:45:11.500Z,97645.27
2023-12-20T15:47:39.366Z,97637.63
2023-12-20T15:50:08.969Z,97646.48
2023-12-20T15:52:38.385Z,97643.91
2023-12-20T15:55:06.692Z,97645.96
2023-12-20T15:57:44.810Z,97644.19
2023-12-20T16:00:17.837Z,97639.10
2023-12-20T16:02:45.414Z,97631.48
2023-12-20T16:05:13.275Z,97628.58
2023-12-20T16:07:41.229Z,97628.55
2023-12-20T16:10:09.135Z,97632.44
2023-12-20T16:12:36.818Z,97633.54
2023-12-20T16:15:05.164Z,97636.77
2023-12-20T16:17:34.604Z,97640.95
2023-12-20T16:20:02.522Z,97633.88
2023-12-20T16:22:30.485Z,97636.98
2023-12-20T16:24:58.202Z,97630.52
2023-12-20T16:27:25.904Z,97626.85
2023-12-20T16:29:53.596Z,97624.95
2023-12-20T16:32:21.203Z,97623.73
2023-12-20T16:34:49.664Z,97627.52
2023-12-20T16:37:17.666Z,97626.92
2023-12-20T16:39:45.336Z,97625.45
2023-12-20T16:42:13.152Z,97625.94
2023-12-20T16:44:41.024Z,97625.61
2023-12-20T16:47:08.677Z,97620.13
2023-12-20T16:49:36.413Z,97624.95
2023-12-20T16:52:06.307Z,97622.14
2023-12-20T16:54:34.040Z,97627.79
2023-12-20T16:57:01.644Z,97615.30
2023-12-20T16:59:29.211Z,97618.23
2023-12-20T17:01:56.806Z,97621.15
2023-12-20T17:04:24.811Z,97624.29
2023-12-20T17:06:52.495Z,97626.70
2023-12-20T17:09:20.145Z,97625.63
2023-12-20T17:11:47.792Z,97627.02
2023-12-20T17:14:15.448Z,97620.14
2023-12-20T17:16:43.039Z,97621.77
2023-12-20T17:19:10.712Z,97621.21
2023-12-20T17:21:39.195Z,97620.29
2023-12-20T17:24:08.876Z,97618.55
2023-12-20T17:26:38.962Z,97615.96
2023-12-20T17:29:06.725Z,97612.35
2023-12-20T17:31:34.490Z,97608.70
2023-12-20T17:34:02.217Z,97601.08
2023-12-20T17:36:29.866Z,97604.98
2023-12-20T17:38:57.473Z,97604.11
2023-12-20T17:41:25.051Z,97600.34
2023-12-20T17:43:52.836Z,97609.10
2023-12-20T17:46:20.492Z,97617.33
2023-12-20T17:48:48.375Z,97616.92
2023-12-20T17:51:16.239Z,97618.45
2023-12-20T17:53:43.909Z,97613.29
2023-12-20T17:56:11.714Z,97611.06
2023-12-20T17:58:39.665Z,97607.95
2023-12-20T18:01:07.390Z,97599.58
2023-12-20T18:03:35.159Z,97595.59
2023-12-20T18:06:03.730Z,97594.77
2023-12-20T18:08:31.344Z,97604.33
2023-12-20T18:10:58.947Z,97606.92
2023-12-20T18:13:26.754Z,97605.67
2023-12-20T18:15:54.468Z,97606.19
2023-12-20T18:18:22.256Z,97608.64
2023-12-20T18:20:50.429Z,97607.09
2023-12-20T18:23:18.176Z,97604.15
2023-12-20T18:25:46.646Z,97605.63
2023-12-20T18:28:14.205Z,97595.39
2023-12-20T18:30:41.899Z,97590.41
2023-12-20T18:33:09.674Z,97592.36
2023-12-20T18:35:38.849Z,97590.95
2023-12-20T18:38:07.056Z,97584.86
2023-12-20T18:40:34.962Z,97584.14
2023-12-20T18:43:03.558Z,97589.01
2023-12-20T18:45:31.343Z,97587.48
2023-12-20T18:47:59.012Z,97590.58
2023-12-20T18:50:26.983Z,97582.95
2023-12-20T18:52:54.563Z,97585.52
2023-12-20T18:55:22.197Z,97587.60
2023-12-20T18:57:50.044Z,97589.87
2023-12-20T19:00:17.834Z,97589.35
2023-12-20T19:02:45.410Z,97588.98
2023-12-20T19:05:15.740Z,97590.34
2023-12-20T19:07:44.230Z,97600.73
2023-12-20T19:10:12.524Z,97601.80
2023-12-20T19:12:40.357Z,97600.93
2023-12-20T19:15:08.636Z,97604.88
2023-12-20T19:17:36.369Z,97606.92
2023-12-20T19:20:05.752Z,97606.08
2023-12-20T19:22:35.189Z,97602.30
2023-12-20T19:25:07.330Z,97602.15
2023-12-20T19:27:38.084Z,97602.63
2023-12-20T19:30:06.959Z,97594.44
2023-12-20T19:32:35.390Z,97591.30
2023-12-20T19:35:03.444Z,97589.63
2023-12-20T19:37:31.246Z,97588.10
2023-12-20T19:39:59.485Z,97590.86
2023-12-20T19:42:27.352Z,97591.02
2023-12-20T19:44:56.121Z,97588.20
2023-12-20T19:47:23.775Z,97586.26
2023-12-20T19:49:51.503Z,97588.00
2023-12-20T19:52:19.314Z,97591.83
2023-12-20T19:54:47.032Z,97588.86
2023-12-20T19:57:15.792Z,97594.67
2023-12-20T19:59:43.672Z,97596.66
2023-12-20T20:02:11.506Z,97599.52
2023-12-20T20:04:39.344Z,97596.07
2023-12-20T20:07:10.793Z,97588.11
2023-12-20T20:09:38.406Z,97586.85
2023-12-20T20:12:06.498Z,97599.20
2023-12-20T20:14:34.093Z,97605.85
2023-12-20T20:17:02.817Z,97607.93
2023-12-20T20:19:31.345Z,97604.31
2023-12-20T20:21:59.444Z,97605.13
2023-12-20T20:24:27.036Z,97600.39
2023-12-20T20:26:55.037Z,97594.08
2023-12-20T20:29:22.733Z,97597.95
2023-12-20T20:31:50.550Z,97602.11
2023-12-20T20:34:20.354Z,97601.23
2023-12-20T20:36:48.159Z,97604.95
2023-12-20T20:39:17.118Z,97607.60
2023-12-20T20:41:44.828Z,97599.93
2023-12-20T20:44:12.552Z,97599.74
2023-12-20T20:46:40.350Z,97601.93
2023-12-20T20:49:08.293Z,97608.24
2023-12-20T20:51:35.940Z,97611.09
2023-12-20T20:54:12.060Z,97615.86
2023-12-20T20:56:46.131Z,97610.88
2023-12-20T20:59:13.747Z,97618.52
2023-12-20T21:01:41.415Z,97614.73
2023-12-20T21:04:09.467Z,97620.95
2023-12-20T21:06:37.049Z,97616.95
2023-12-20T21:09:06.076Z,97613.15
2023-12-20T21:11:34.052Z,97615.79
2023-12-20T21:14:01.695Z,97608.42
2023-12-20T21:16:29.331Z,97606.36
2023-12-20T21:18:57.204Z,97615.66
2023-12-20T21:21:24.900Z,97617.59
2023-12-20T21:23:52.535Z,97615.05
2023-12-20T21:26:20.379Z,97614.47
2023-12-20T21:28:48.986Z,97612.46
2023-12-20T21:31:16.693Z,97611.91
2023-12-20T21:33:44.861Z,97607.02
2023-12-20T21:36:12.797Z,97599.85
2023-12-20T21:38:40.508Z,97601.02
2023-12-20T21:41:08.843Z,97599.33
2023-12-20T21:43:37.521Z,97604.05
2023-12-20T21:46:05.289Z,97603.81
2023-12-20T21:48:33.044Z,97607.38
2023-12-20T21:51:00.617Z,97604.89
2023-12-20T21:53:28.439Z,97609.88
2023-12-20T21:55:56.226Z,97606.48
2023-12-20T21:58:24.088Z,97605.33
2023-12-20T22:00:51.904Z,97598.95
2023-12-20T22:03:19.730Z,97599.77
2023-12-20T22:05:47.618Z,97594.02
2023-12-20T22:08:15.278Z,97590.77
2023-12-20T22:10:42.932Z,97579.09
2023-12-20T22:13:10.660Z,97577.92
2023-12-20T22:15:38.306Z,97580.02
2023-12-20T22:18:06.476Z,97573.93
2023-12-20T22:20:34.639Z,97577.92
2023-12-20T22:23:04.379Z,97573.84
2023-12-20T22:25:32.372Z,97573.54
2023-12-20T22:28:00.273Z,97569.58
2023-12-20T22:30:28.151Z,97571.80
2023-12-20T22:32:55.928Z,97571.61
2023-12-20T22:35:23.801Z,97569.19
2023-12-20T22:37:53.286Z,97569.06
2023-12-20T22:40:21.238Z,97568.39
2023-12-20T22:42:48.906Z,97563.88
2023-12-20T22:45:16.497Z,97554.38
2023-12-20T22:47:47.741Z,97552.03
2023-12-20T22:50:16.871Z,97550.90
2023-12-20T22:52:44.587Z,97551.77
2023-12-20T22:55:12.430Z,97547.48
2023-12-20T22:57:40.215Z,97549.23
2023-12-20T23:00:10.268Z,97546.69
2023-12-20T23:02:38.410Z,97539.55
2023-12-20T23:05:07.281Z,97538.58
2023-12-20T23:07:35.345Z,97535.66
2023-12-20T23:10:03.774Z,97532.90
2023-12-20T23:12:32.826Z,97525.99
2023-12-20T23:15:00.444Z,97519.35
2023-12-20T23:17:28.130Z,97510.76
2023-12-20T23:19:55.813Z,97508.34
2023-12-20T23:22:24.504Z,97511.40
2023-12-20T23:24:52.190Z,97509.85
2023-12-20T23:27:19.784Z,97506.44
2023-12-20T23:29:47.486Z,97502.88
2023-12-20T23:32:15.217Z,97503.77
2023-12-20T23:34:42.856Z,97495.63
2023-12-20T23:37:12.565Z,97497.13
2023-12-20T23:39:40.645Z,97496.11
2023-12-20T23:42:08.997Z,97494.77
2023-12-20T23:44:36.697Z,97485.61
2023-12-20T23:47:04.565Z,97478.83
2023-12-20T23:49:32.373Z,97481.92
2023-12-20T23:52:00.064Z,97477.13
2023-12-20T23:54:27.830Z,97472.14
2023-12-20T23:56:55.652Z,97471.77
2023-12-20T23:59:24.009Z,97467.94
